sensor_id;sensor_type;location;lat;lon;timestamp;temperature;humidity
31129;DHT22;17777;48.770;8.944;2023-06-04T00:02:24;22.70;37.10
31129;DHT22;17777;48.770;8.944;2023-06-04T00:04:50;22.60;37.10
31129;DHT22;17777;48.770;8.944;2023-06-04T00:07:15;22.60;37.20
31129;DHT22;17777;48.770;8.944;2023-06-04T00:09:41;22.60;37.20
31129;DHT22;17777;48.770;8.944;2023-06-04T00:12:08;22.50;37.20
31129;DHT22;17777;48.770;8.944;2023-06-04T00:14:33;22.50;37.20
31129;DHT22;17777;48.770;8.944;2023-06-04T00:16:59;22.40;37.30
31129;DHT22;17777;48.770;8.944;2023-06-04T00:19:25;22.40;37.40
31129;DHT22;17777;48.770;8.944;2023-06-04T00:21:51;22.30;37.40
31129;DHT22;17777;48.770;8.944;2023-06-04T00:24:17;22.30;37.50
31129;DHT22;17777;48.770;8.944;2023-06-04T00:26:42;22.20;37.60
31129;DHT22;17777;48.770;8.944;2023-06-04T00:29:09;22.20;37.70
31129;DHT22;17777;48.770;8.944;2023-06-04T00:31:35;22.20;37.80
31129;DHT22;17777;48.770;8.944;2023-06-04T00:34:02;22.10;37.70
31129;DHT22;17777;48.770;8.944;2023-06-04T00:36:31;22.10;37.80
31129;DHT22;17777;48.770;8.944;2023-06-04T00:38:57;22.00;37.80
31129;DHT22;17777;48.770;8.944;2023-06-04T00:41:22;22.00;37.90
31129;DHT22;17777;48.770;8.944;2023-06-04T00:43:48;21.90;37.90
31129;DHT22;17777;48.770;8.944;2023-06-04T00:46:25;21.90;38.00
31129;DHT22;17777;48.770;8.944;2023-06-04T00:48:52;21.90;38.10
31129;DHT22;17777;48.770;8.944;2023-06-04T00:51:19;21.90;38.10
31129;DHT22;17777;48.770;8.944;2023-06-04T00:53:47;21.80;38.10
31129;DHT22;17777;48.770;8.944;2023-06-04T00:56:16;21.80;38.20
31129;DHT22;17777;48.770;8.944;2023-06-04T00:58:42;21.70;38.20
31129;DHT22;17777;48.770;8.944;2023-06-04T01:01:24;21.70;38.20
31129;DHT22;17777;48.770;8.944;2023-06-04T01:03:55;21.70;38.70
31129;DHT22;17777;48.770;8.944;2023-06-04T01:08:58;21.60;38.60
31129;DHT22;17777;48.770;8.944;2023-06-04T01:11:34;21.50;38.30
31129;DHT22;17777;48.770;8.944;2023-06-04T01:14:02;21.50;38.70
31129;DHT22;17777;48.770;8.944;2023-06-04T01:16:34;21.40;38.40
31129;DHT22;17777;48.770;8.944;2023-06-04T01:19:29;21.40;38.50
31129;DHT22;17777;48.770;8.944;2023-06-04T01:25:20;21.30;39.00
31129;DHT22;17777;48.770;8.944;2023-06-04T01:27:55;21.30;38.80
31129;DHT22;17777;48.770;8.944;2023-06-04T01:30:28;21.20;39.00
31129;DHT22;17777;48.770;8.944;2023-06-04T01:32:56;21.20;39.00
31129;DHT22;17777;48.770;8.944;2023-06-04T01:35:22;21.20;38.80
31129;DHT22;17777;48.770;8.944;2023-06-04T01:37:49;21.10;38.80
31129;DHT22;17777;48.770;8.944;2023-06-04T01:40:15;21.10;38.80
31129;DHT22;17777;48.770;8.944;2023-06-04T01:42:42;21.10;38.80
31129;DHT22;17777;48.770;8.944;2023-06-04T01:45:08;21.00;38.70
31129;DHT22;17777;48.770;8.944;2023-06-04T01:47:34;21.00;38.70
31129;DHT22;17777;48.770;8.944;2023-06-04T01:50:04;21.00;38.80
31129;DHT22;17777;48.770;8.944;2023-06-04T01:52:31;20.90;38.80
31129;DHT22;17777;48.770;8.944;2023-06-04T01:54:57;20.90;38.90
31129;DHT22;17777;48.770;8.944;2023-06-04T01:57:23;20.90;39.00
31129;DHT22;17777;48.770;8.944;2023-06-04T01:59:49;20.80;39.00
31129;DHT22;17777;48.770;8.944;2023-06-04T02:02:16;20.80;39.10
31129;DHT22;17777;48.770;8.944;2023-06-04T02:04:42;20.80;39.10
31129;DHT22;17777;48.770;8.944;2023-06-04T02:07:09;20.70;39.10
31129;DHT22;17777;48.770;8.944;2023-06-04T02:09:35;20.70;39.10
31129;DHT22;17777;48.770;8.944;2023-06-04T02:12:02;20.70;39.10
31129;DHT22;17777;48.770;8.944;2023-06-04T02:14:28;20.60;39.20
31129;DHT22;17777;48.770;8.944;2023-06-04T02:16:54;20.60;39.20
31129;DHT22;17777;48.770;8.944;2023-06-04T02:19:26;20.50;39.30
31129;DHT22;17777;48.770;8.944;2023-06-04T02:21:55;20.50;39.60
31129;DHT22;17777;48.770;8.944;2023-06-04T02:24:22;20.40;39.60
31129;DHT22;17777;48.770;8.944;2023-06-04T02:26:48;20.40;39.50
31129;DHT22;17777;48.770;8.944;2023-06-04T02:29:13;20.40;39.60
31129;DHT22;17777;48.770;8.944;2023-06-04T02:31:39;20.40;39.60
31129;DHT22;17777;48.770;8.944;2023-06-04T02:34:05;20.30;39.50
31129;DHT22;17777;48.770;8.944;2023-06-04T02:36:31;20.30;39.70
31129;DHT22;17777;48.770;8.944;2023-06-04T02:38:57;20.30;39.70
31129;DHT22;17777;48.770;8.944;2023-06-04T02:41:23;20.30;39.70
31129;DHT22;17777;48.770;8.944;2023-06-04T02:43:49;20.20;39.80
31129;DHT22;17777;48.770;8.944;2023-06-04T02:46:15;20.20;39.80
31129;DHT22;17777;48.770;8.944;2023-06-04T02:48:41;20.20;39.90
31129;DHT22;17777;48.770;8.944;2023-06-04T02:51:07;20.10;39.80
31129;DHT22;17777;48.770;8.944;2023-06-04T02:53:36;20.10;39.80
31129;DHT22;17777;48.770;8.944;2023-06-04T02:56:02;20.10;39.80
31129;DHT22;17777;48.770;8.944;2023-06-04T02:58:28;20.10;39.90
31129;DHT22;17777;48.770;8.944;2023-06-04T03:00:54;20.10;40.00
31129;DHT22;17777;48.770;8.944;2023-06-04T03:03:21;20.00;40.00
31129;DHT22;17777;48.770;8.944;2023-06-04T03:05:47;20.00;40.00
31129;DHT22;17777;48.770;8.944;2023-06-04T03:08:13;19.90;40.10
31129;DHT22;17777;48.770;8.944;2023-06-04T03:10:39;19.90;40.00
31129;DHT22;17777;48.770;8.944;2023-06-04T03:13:05;19.90;40.00
31129;DHT22;17777;48.770;8.944;2023-06-04T03:15:30;19.90;40.00
31129;DHT22;17777;48.770;8.944;2023-06-04T03:17:56;19.80;40.00
31129;DHT22;17777;48.770;8.944;2023-06-04T03:20:22;19.80;40.00
31129;DHT22;17777;48.770;8.944;2023-06-04T03:22:53;19.70;40.10
31129;DHT22;17777;48.770;8.944;2023-06-04T03:25:19;19.70;40.30
31129;DHT22;17777;48.770;8.944;2023-06-04T03:27:46;19.70;40.20
31129;DHT22;17777;48.770;8.944;2023-06-04T03:30:12;19.60;40.30
31129;DHT22;17777;48.770;8.944;2023-06-04T03:32:45;19.60;40.30
31129;DHT22;17777;48.770;8.944;2023-06-04T03:35:12;19.60;40.30
31129;DHT22;17777;48.770;8.944;2023-06-04T03:37:38;19.60;40.40
31129;DHT22;17777;48.770;8.944;2023-06-04T03:40:05;19.50;40.50
31129;DHT22;17777;48.770;8.944;2023-06-04T03:42:34;19.50;40.50
31129;DHT22;17777;48.770;8.944;2023-06-04T03:45:00;19.50;40.60
31129;DHT22;17777;48.770;8.944;2023-06-04T03:47:27;19.50;40.60
31129;DHT22;17777;48.770;8.944;2023-06-04T03:49:53;19.40;40.60
31129;DHT22;17777;48.770;8.944;2023-06-04T03:52:19;19.40;40.70
31129;DHT22;17777;48.770;8.944;2023-06-04T03:54:45;19.40;40.70
31129;DHT22;17777;48.770;8.944;2023-06-04T03:57:10;19.40;40.70
31129;DHT22;17777;48.770;8.944;2023-06-04T03:59:36;19.30;40.70
31129;DHT22;17777;48.770;8.944;2023-06-04T04:02:02;19.30;40.70
31129;DHT22;17777;48.770;8.944;2023-06-04T04:04:28;19.30;40.70
31129;DHT22;17777;48.770;8.944;2023-06-04T04:06:54;19.30;40.80
31129;DHT22;17777;48.770;8.944;2023-06-04T04:09:20;19.20;40.70
31129;DHT22;17777;48.770;8.944;2023-06-04T04:11:46;19.20;40.70
31129;DHT22;17777;48.770;8.944;2023-06-04T04:14:12;19.20;40.70
31129;DHT22;17777;48.770;8.944;2023-06-04T04:16:38;19.20;40.80
31129;DHT22;17777;48.770;8.944;2023-06-04T04:19:04;19.20;41.00
31129;DHT22;17777;48.770;8.944;2023-06-04T04:21:34;19.10;41.00
31129;DHT22;17777;48.770;8.944;2023-06-04T04:24:03;19.10;41.20
31129;DHT22;17777;48.770;8.944;2023-06-04T04:26:29;19.10;41.30
31129;DHT22;17777;48.770;8.944;2023-06-04T04:28:57;19.10;41.40
31129;DHT22;17777;48.770;8.944;2023-06-04T04:31:24;19.00;41.40
31129;DHT22;17777;48.770;8.944;2023-06-04T04:33:50;19.00;41.50
31129;DHT22;17777;48.770;8.944;2023-06-04T04:36:17;19.00;41.70
31129;DHT22;17777;48.770;8.944;2023-06-04T04:38:46;19.00;41.80
31129;DHT22;17777;48.770;8.944;2023-06-04T04:41:20;19.00;41.80
31129;DHT22;17777;48.770;8.944;2023-06-04T04:43:48;19.00;42.00
31129;DHT22;17777;48.770;8.944;2023-06-04T04:46:22;19.00;42.10
31129;DHT22;17777;48.770;8.944;2023-06-04T04:48:48;19.00;42.10
31129;DHT22;17777;48.770;8.944;2023-06-04T04:51:13;19.00;42.20
31129;DHT22;17777;48.770;8.944;2023-06-04T04:53:39;19.00;42.30
31129;DHT22;17777;48.770;8.944;2023-06-04T04:56:05;19.00;42.40
31129;DHT22;17777;48.770;8.944;2023-06-04T04:58:34;19.10;42.50
31129;DHT22;17777;48.770;8.944;2023-06-04T05:01:00;19.00;42.50
31129;DHT22;17777;48.770;8.944;2023-06-04T05:03:27;19.10;42.60
31129;DHT22;17777;48.770;8.944;2023-06-04T05:05:53;19.10;42.70
31129;DHT22;17777;48.770;8.944;2023-06-04T05:08:19;19.10;42.70
31129;DHT22;17777;48.770;8.944;2023-06-04T05:10:45;19.10;42.80
31129;DHT22;17777;48.770;8.944;2023-06-04T05:13:11;19.10;42.80
31129;DHT22;17777;48.770;8.944;2023-06-04T05:15:43;19.10;42.90
31129;DHT22;17777;48.770;8.944;2023-06-04T05:18:11;19.10;42.80
31129;DHT22;17777;48.770;8.944;2023-06-04T05:20:38;19.10;42.70
31129;DHT22;17777;48.770;8.944;2023-06-04T05:23:06;19.20;42.70
31129;DHT22;17777;48.770;8.944;2023-06-04T05:25:32;19.20;42.50
31129;DHT22;17777;48.770;8.944;2023-06-04T05:28:00;19.20;42.60
31129;DHT22;17777;48.770;8.944;2023-06-04T05:30:27;19.30;42.60
31129;DHT22;17777;48.770;8.944;2023-06-04T05:32:53;19.30;42.60
31129;DHT22;17777;48.770;8.944;2023-06-04T05:35:22;19.30;42.50
31129;DHT22;17777;48.770;8.944;2023-06-04T05:37:48;19.40;42.50
31129;DHT22;17777;48.770;8.944;2023-06-04T05:40:20;19.40;42.40
31129;DHT22;17777;48.770;8.944;2023-06-04T05:42:48;19.50;42.40
31129;DHT22;17777;48.770;8.944;2023-06-04T05:45:14;19.50;42.40
31129;DHT22;17777;48.770;8.944;2023-06-04T05:47:41;19.60;42.40
31129;DHT22;17777;48.770;8.944;2023-06-04T05:50:08;19.60;42.40
31129;DHT22;17777;48.770;8.944;2023-06-04T05:52:35;19.60;42.40
31129;DHT22;17777;48.770;8.944;2023-06-04T05:55:02;19.70;42.30
31129;DHT22;17777;48.770;8.944;2023-06-04T05:57:29;19.70;42.20
31129;DHT22;17777;48.770;8.944;2023-06-04T05:59:56;19.80;42.20
31129;DHT22;17777;48.770;8.944;2023-06-04T06:02:21;19.80;42.20
31129;DHT22;17777;48.770;8.944;2023-06-04T06:04:47;19.90;42.20
31129;DHT22;17777;48.770;8.944;2023-06-04T06:07:13;19.90;42.20
31129;DHT22;17777;48.770;8.944;2023-06-04T06:09:39;20.00;42.20
31129;DHT22;17777;48.770;8.944;2023-06-04T06:12:05;20.00;42.10
31129;DHT22;17777;48.770;8.944;2023-06-04T06:14:33;20.10;42.00
31129;DHT22;17777;48.770;8.944;2023-06-04T06:17:00;20.10;42.00
31129;DHT22;17777;48.770;8.944;2023-06-04T06:19:28;20.20;42.00
31129;DHT22;17777;48.770;8.944;2023-06-04T06:21:54;20.20;41.90
31129;DHT22;17777;48.770;8.944;2023-06-04T06:24:21;20.30;41.90
31129;DHT22;17777;48.770;8.944;2023-06-04T06:26:47;20.30;41.70
31129;DHT22;17777;48.770;8.944;2023-06-04T06:29:14;20.40;41.70
31129;DHT22;17777;48.770;8.944;2023-06-04T06:31:40;20.40;41.70
31129;DHT22;17777;48.770;8.944;2023-06-04T06:34:06;20.50;41.60
31129;DHT22;17777;48.770;8.944;2023-06-04T06:36:32;20.50;41.70
31129;DHT22;17777;48.770;8.944;2023-06-04T06:38:58;20.60;41.50
31129;DHT22;17777;48.770;8.944;2023-06-04T06:41:24;20.70;41.50
31129;DHT22;17777;48.770;8.944;2023-06-04T06:43:51;20.70;41.40
31129;DHT22;17777;48.770;8.944;2023-06-04T06:46:16;20.70;41.40
31129;DHT22;17777;48.770;8.944;2023-06-04T06:48:42;20.80;41.40
31129;DHT22;17777;48.770;8.944;2023-06-04T06:51:11;20.80;41.40
31129;DHT22;17777;48.770;8.944;2023-06-04T06:53:37;20.90;41.50
31129;DHT22;17777;48.770;8.944;2023-06-04T06:56:02;20.90;41.40
31129;DHT22;17777;48.770;8.944;2023-06-04T06:58:28;21.00;41.40
31129;DHT22;17777;48.770;8.944;2023-06-04T07:00:54;21.00;41.30
31129;DHT22;17777;48.770;8.944;2023-06-04T07:03:22;21.10;41.80
31129;DHT22;17777;48.770;8.944;2023-06-04T07:05:47;21.10;41.20
31129;DHT22;17777;48.770;8.944;2023-06-04T07:08:14;21.20;41.30
31129;DHT22;17777;48.770;8.944;2023-06-04T07:10:39;21.20;41.30
31129;DHT22;17777;48.770;8.944;2023-06-04T07:13:05;21.30;41.30
31129;DHT22;17777;48.770;8.944;2023-06-04T07:15:31;21.40;41.40
31129;DHT22;17777;48.770;8.944;2023-06-04T07:17:57;21.40;41.30
31129;DHT22;17777;48.770;8.944;2023-06-04T07:20:23;21.50;42.10
31129;DHT22;17777;48.770;8.944;2023-06-04T07:22:48;21.50;41.30
31129;DHT22;17777;48.770;8.944;2023-06-04T07:25:14;21.60;41.30
31129;DHT22;17777;48.770;8.944;2023-06-04T07:27:40;21.70;41.30
31129;DHT22;17777;48.770;8.944;2023-06-04T07:30:06;21.70;41.20
31129;DHT22;17777;48.770;8.944;2023-06-04T07:32:34;21.80;41.00
31129;DHT22;17777;48.770;8.944;2023-06-04T07:35:02;21.90;41.10
31129;DHT22;17777;48.770;8.944;2023-06-04T07:37:28;21.90;41.10
31129;DHT22;17777;48.770;8.944;2023-06-04T07:39:54;22.00;41.10
31129;DHT22;17777;48.770;8.944;2023-06-04T07:42:19;22.10;41.00
31129;DHT22;17777;48.770;8.944;2023-06-04T07:44:45;22.10;40.90
31129;DHT22;17777;48.770;8.944;2023-06-04T07:47:11;22.20;40.80
31129;DHT22;17777;48.770;8.944;2023-06-04T07:49:37;22.30;40.80
31129;DHT22;17777;48.770;8.944;2023-06-04T07:52:02;22.40;40.70
31129;DHT22;17777;48.770;8.944;2023-06-04T07:54:28;22.40;41.30
31129;DHT22;17777;48.770;8.944;2023-06-04T07:56:54;22.50;40.60
31129;DHT22;17777;48.770;8.944;2023-06-04T07:59:24;22.60;40.70
31129;DHT22;17777;48.770;8.944;2023-06-04T08:01:50;22.70;40.60
31129;DHT22;17777;48.770;8.944;2023-06-04T08:04:19;22.70;40.40
31129;DHT22;17777;48.770;8.944;2023-06-04T08:06:45;22.80;40.30
31129;DHT22;17777;48.770;8.944;2023-06-04T08:09:12;22.80;40.30
31129;DHT22;17777;48.770;8.944;2023-06-04T08:11:41;22.90;41.00
31129;DHT22;17777;48.770;8.944;2023-06-04T08:14:09;23.00;40.40
31129;DHT22;17777;48.770;8.944;2023-06-04T08:16:36;23.10;40.30
31129;DHT22;17777;48.770;8.944;2023-06-04T08:19:01;23.10;40.40
31129;DHT22;17777;48.770;8.944;2023-06-04T08:21:27;23.20;40.40
31129;DHT22;17777;48.770;8.944;2023-06-04T08:23:54;23.30;40.30
31129;DHT22;17777;48.770;8.944;2023-06-04T08:26:21;23.30;40.00
31129;DHT22;17777;48.770;8.944;2023-06-04T08:28:50;23.40;40.00
31129;DHT22;17777;48.770;8.944;2023-06-04T08:31:16;23.50;40.00
31129;DHT22;17777;48.770;8.944;2023-06-04T08:33:46;23.60;39.90
31129;DHT22;17777;48.770;8.944;2023-06-04T08:36:12;23.70;39.90
31129;DHT22;17777;48.770;8.944;2023-06-04T08:38:37;23.80;39.80
31129;DHT22;17777;48.770;8.944;2023-06-04T08:41:16;23.90;39.50
31129;DHT22;17777;48.770;8.944;2023-06-04T08:43:47;24.00;39.10
31129;DHT22;17777;48.770;8.944;2023-06-04T08:46:15;24.00;39.30
31129;DHT22;17777;48.770;8.944;2023-06-04T08:48:43;24.10;39.20
31129;DHT22;17777;48.770;8.944;2023-06-04T08:51:10;24.20;39.20
31129;DHT22;17777;48.770;8.944;2023-06-04T08:53:36;24.30;39.10
31129;DHT22;17777;48.770;8.944;2023-06-04T08:56:03;24.40;39.00
31129;DHT22;17777;48.770;8.944;2023-06-04T08:58:32;24.40;39.00
31129;DHT22;17777;48.770;8.944;2023-06-04T09:01:00;24.50;38.60
31129;DHT22;17777;48.770;8.944;2023-06-04T09:03:28;24.60;38.70
31129;DHT22;17777;48.770;8.944;2023-06-04T09:05:55;24.70;38.60
31129;DHT22;17777;48.770;8.944;2023-06-04T09:08:23;24.80;38.40
31129;DHT22;17777;48.770;8.944;2023-06-04T09:10:50;24.90;38.20
31129;DHT22;17777;48.770;8.944;2023-06-04T09:13:21;24.90;38.10
31129;DHT22;17777;48.770;8.944;2023-06-04T09:16:01;25.00;38.10
31129;DHT22;17777;48.770;8.944;2023-06-04T09:18:28;25.10;37.60
31129;DHT22;17777;48.770;8.944;2023-06-04T09:21:20;25.20;37.90
31129;DHT22;17777;48.770;8.944;2023-06-04T09:23:47;25.20;37.30
31129;DHT22;17777;48.770;8.944;2023-06-04T09:26:13;25.30;37.70
31129;DHT22;17777;48.770;8.944;2023-06-04T09:28:43;25.40;38.30
31129;DHT22;17777;48.770;8.944;2023-06-04T09:31:14;25.40;37.20
31129;DHT22;17777;48.770;8.944;2023-06-04T09:33:50;25.50;37.40
31129;DHT22;17777;48.770;8.944;2023-06-04T09:36:16;25.50;36.70
31129;DHT22;17777;48.770;8.944;2023-06-04T09:38:43;25.60;37.10
31129;DHT22;17777;48.770;8.944;2023-06-04T09:41:17;25.70;37.00
31129;DHT22;17777;48.770;8.944;2023-06-04T09:43:45;25.70;36.90
31129;DHT22;17777;48.770;8.944;2023-06-04T09:46:12;25.90;37.10
31129;DHT22;17777;48.770;8.944;2023-06-04T09:48:43;25.90;36.80
31129;DHT22;17777;48.770;8.944;2023-06-04T09:51:11;25.90;36.70
31129;DHT22;17777;48.770;8.944;2023-06-04T09:53:38;26.00;36.90
31129;DHT22;17777;48.770;8.944;2023-06-04T09:56:05;26.10;36.90
31129;DHT22;17777;48.770;8.944;2023-06-04T09:58:32;26.10;36.60
31129;DHT22;17777;48.770;8.944;2023-06-04T10:01:00;26.20;36.60
31129;DHT22;17777;48.770;8.944;2023-06-04T10:03:31;26.30;36.50
31129;DHT22;17777;48.770;8.944;2023-06-04T10:06:00;26.30;36.40
31129;DHT22;17777;48.770;8.944;2023-06-04T10:08:27;26.30;36.20
31129;DHT22;17777;48.770;8.944;2023-06-04T10:10:58;26.40;36.20
31129;DHT22;17777;48.770;8.944;2023-06-04T10:16:20;26.50;35.30
31129;DHT22;17777;48.770;8.944;2023-06-04T10:18:47;26.60;35.70
31129;DHT22;17777;48.770;8.944;2023-06-04T10:21:14;26.60;35.60
31129;DHT22;17777;48.770;8.944;2023-06-04T10:23:41;26.70;35.50
31129;DHT22;17777;48.770;8.944;2023-06-04T10:26:13;26.70;35.40
31129;DHT22;17777;48.770;8.944;2023-06-04T10:28:41;26.80;35.30
31129;DHT22;17777;48.770;8.944;2023-06-04T10:31:09;26.80;35.20
31129;DHT22;17777;48.770;8.944;2023-06-04T10:33:36;26.90;34.70
31129;DHT22;17777;48.770;8.944;2023-06-04T10:36:16;26.90;34.90
31129;DHT22;17777;48.770;8.944;2023-06-04T10:38:51;27.00;33.90
31129;DHT22;17777;48.770;8.944;2023-06-04T10:41:19;27.10;34.60
31129;DHT22;17777;48.770;8.944;2023-06-04T10:43:47;27.10;34.50
31129;DHT22;17777;48.770;8.944;2023-06-04T10:46:19;27.10;34.40
31129;DHT22;17777;48.770;8.944;2023-06-04T10:48:50;27.10;34.10
31129;DHT22;17777;48.770;8.944;2023-06-04T10:51:32;27.20;33.90
31129;DHT22;17777;48.770;8.944;2023-06-04T10:54:00;27.20;33.30
31129;DHT22;17777;48.770;8.944;2023-06-04T10:56:29;27.30;34.00
31129;DHT22;17777;48.770;8.944;2023-06-04T10:58:58;27.30;34.10
31129;DHT22;17777;48.770;8.944;2023-06-04T11:01:27;27.40;34.00
31129;DHT22;17777;48.770;8.944;2023-06-04T11:03:54;27.40;34.00
31129;DHT22;17777;48.770;8.944;2023-06-04T11:06:22;27.40;34.00
31129;DHT22;17777;48.770;8.944;2023-06-04T11:08:48;27.50;33.80
31129;DHT22;17777;48.770;8.944;2023-06-04T11:11:15;27.50;33.80
31129;DHT22;17777;48.770;8.944;2023-06-04T11:13:42;27.50;33.60
31129;DHT22;17777;48.770;8.944;2023-06-04T11:16:34;27.60;33.70
31129;DHT22;17777;48.770;8.944;2023-06-04T11:19:00;27.70;33.10
31129;DHT22;17777;48.770;8.944;2023-06-04T11:21:27;27.70;33.30
31129;DHT22;17777;48.770;8.944;2023-06-04T11:23:59;27.80;33.20
31129;DHT22;17777;48.770;8.944;2023-06-04T11:26:33;27.80;33.00
31129;DHT22;17777;48.770;8.944;2023-06-04T11:29:01;27.90;33.00
31129;DHT22;17777;48.770;8.944;2023-06-04T11:31:28;27.90;33.20
31129;DHT22;17777;48.770;8.944;2023-06-04T11:33:53;27.90;32.90
31129;DHT22;17777;48.770;8.944;2023-06-04T11:36:27;27.90;32.70
31129;DHT22;17777;48.770;8.944;2023-06-04T11:38:57;28.00;32.10
31129;DHT22;17777;48.770;8.944;2023-06-04T11:41:31;28.00;32.60
31129;DHT22;17777;48.770;8.944;2023-06-04T11:44:05;28.10;32.60
31129;DHT22;17777;48.770;8.944;2023-06-04T11:46:35;28.10;32.40
31129;DHT22;17777;48.770;8.944;2023-06-04T11:49:04;28.20;32.40
31129;DHT22;17777;48.770;8.944;2023-06-04T11:51:30;28.20;32.40
31129;DHT22;17777;48.770;8.944;2023-06-04T11:53:56;28.20;32.70
31129;DHT22;17777;48.770;8.944;2023-06-04T11:56:24;28.20;32.40
31129;DHT22;17777;48.770;8.944;2023-06-04T11:58:51;28.30;32.20
31129;DHT22;17777;48.770;8.944;2023-06-04T12:01:20;28.40;32.30
31129;DHT22;17777;48.770;8.944;2023-06-04T12:03:46;28.40;32.10
31129;DHT22;17777;48.770;8.944;2023-06-04T12:06:19;28.40;32.00
31129;DHT22;17777;48.770;8.944;2023-06-04T12:11:33;28.50;31.30
31129;DHT22;17777;48.770;8.944;2023-06-04T12:14:06;28.60;31.10
31129;DHT22;17777;48.770;8.944;2023-06-04T12:16:35;28.60;30.90
31129;DHT22;17777;48.770;8.944;2023-06-04T12:19:11;28.70;31.30
31129;DHT22;17777;48.770;8.944;2023-06-04T12:21:38;28.70;30.90
31129;DHT22;17777;48.770;8.944;2023-06-04T12:24:12;28.70;31.20
31129;DHT22;17777;48.770;8.944;2023-06-04T12:26:40;28.70;30.50
31129;DHT22;17777;48.770;8.944;2023-06-04T12:29:14;28.80;31.00
31129;DHT22;17777;48.770;8.944;2023-06-04T12:31:44;28.80;30.40
31129;DHT22;17777;48.770;8.944;2023-06-04T12:34:14;28.80;30.70
31129;DHT22;17777;48.770;8.944;2023-06-04T12:36:40;28.80;30.70
31129;DHT22;17777;48.770;8.944;2023-06-04T12:39:06;28.90;30.70
31129;DHT22;17777;48.770;8.944;2023-06-04T12:41:33;28.90;30.70
31129;DHT22;17777;48.770;8.944;2023-06-04T12:43:59;28.90;30.60
31129;DHT22;17777;48.770;8.944;2023-06-04T12:46:26;28.90;30.40
31129;DHT22;17777;48.770;8.944;2023-06-04T12:48:53;29.00;30.40
31129;DHT22;17777;48.770;8.944;2023-06-04T12:51:20;29.00;30.30
31129;DHT22;17777;48.770;8.944;2023-06-04T12:53:47;29.00;30.20
31129;DHT22;17777;48.770;8.944;2023-06-04T12:56:14;29.00;30.10
31129;DHT22;17777;48.770;8.944;2023-06-04T12:58:40;29.10;30.00
31129;DHT22;17777;48.770;8.944;2023-06-04T13:01:06;29.10;30.10
31129;DHT22;17777;48.770;8.944;2023-06-04T13:03:33;29.10;30.60
31129;DHT22;17777;48.770;8.944;2023-06-04T13:05:59;29.20;29.90
31129;DHT22;17777;48.770;8.944;2023-06-04T13:08:25;29.20;29.70
31129;DHT22;17777;48.770;8.944;2023-06-04T13:10:52;29.30;29.60
31129;DHT22;17777;48.770;8.944;2023-06-04T13:13:18;29.30;29.70
31129;DHT22;17777;48.770;8.944;2023-06-04T13:15:45;29.30;29.50
31129;DHT22;17777;48.770;8.944;2023-06-04T13:18:12;29.30;29.40
31129;DHT22;17777;48.770;8.944;2023-06-04T13:20:40;29.30;29.30
31129;DHT22;17777;48.770;8.944;2023-06-04T13:23:06;29.30;29.60
31129;DHT22;17777;48.770;8.944;2023-06-04T13:25:33;29.30;29.30
31129;DHT22;17777;48.770;8.944;2023-06-04T13:27:59;29.30;29.20
31129;DHT22;17777;48.770;8.944;2023-06-04T13:30:26;29.40;29.30
31129;DHT22;17777;48.770;8.944;2023-06-04T13:32:53;29.30;29.10
31129;DHT22;17777;48.770;8.944;2023-06-04T13:35:19;29.30;28.90
31129;DHT22;17777;48.770;8.944;2023-06-04T13:37:45;29.30;28.80
31129;DHT22;17777;48.770;8.944;2023-06-04T13:40:13;29.30;28.80
31129;DHT22;17777;48.770;8.944;2023-06-04T13:42:39;29.30;28.70
31129;DHT22;17777;48.770;8.944;2023-06-04T13:45:05;29.30;28.70
31129;DHT22;17777;48.770;8.944;2023-06-04T13:47:31;29.30;28.60
31129;DHT22;17777;48.770;8.944;2023-06-04T13:49:58;29.30;28.70
31129;DHT22;17777;48.770;8.944;2023-06-04T13:52:24;29.30;28.70
31129;DHT22;17777;48.770;8.944;2023-06-04T13:54:50;29.30;28.80
31129;DHT22;17777;48.770;8.944;2023-06-04T13:57:16;29.30;28.70
31129;DHT22;17777;48.770;8.944;2023-06-04T13:59:42;29.30;28.60
31129;DHT22;17777;48.770;8.944;2023-06-04T14:02:08;29.30;28.60
31129;DHT22;17777;48.770;8.944;2023-06-04T14:04:34;29.30;29.10
31129;DHT22;17777;48.770;8.944;2023-06-04T14:07:00;29.30;28.50
31129;DHT22;17777;48.770;8.944;2023-06-04T14:09:25;29.20;28.50
31129;DHT22;17777;48.770;8.944;2023-06-04T14:11:51;29.20;28.40
31129;DHT22;17777;48.770;8.944;2023-06-04T14:14:17;29.20;28.50
31129;DHT22;17777;48.770;8.944;2023-06-04T14:16:44;29.20;28.80
31129;DHT22;17777;48.770;8.944;2023-06-04T14:19:10;29.30;28.60
31129;DHT22;17777;48.770;8.944;2023-06-04T14:21:36;29.20;28.40
31129;DHT22;17777;48.770;8.944;2023-06-04T14:24:02;29.20;28.40
31129;DHT22;17777;48.770;8.944;2023-06-04T14:26:28;29.20;28.50
31129;DHT22;17777;48.770;8.944;2023-06-04T14:28:57;29.20;28.40
31129;DHT22;17777;48.770;8.944;2023-06-04T14:31:23;29.20;28.40
31129;DHT22;17777;48.770;8.944;2023-06-04T14:33:49;29.20;28.20
31129;DHT22;17777;48.770;8.944;2023-06-04T14:36:15;29.30;28.30
31129;DHT22;17777;48.770;8.944;2023-06-04T14:38:40;29.30;28.10
31129;DHT22;17777;48.770;8.944;2023-06-04T14:41:07;29.30;28.20
31129;DHT22;17777;48.770;8.944;2023-06-04T14:43:33;29.30;28.00
31129;DHT22;17777;48.770;8.944;2023-06-04T14:45:58;29.30;28.10
31129;DHT22;17777;48.770;8.944;2023-06-04T14:48:24;29.30;27.90
31129;DHT22;17777;48.770;8.944;2023-06-04T14:50:50;29.30;27.90
31129;DHT22;17777;48.770;8.944;2023-06-04T14:53:19;29.30;27.80
31129;DHT22;17777;48.770;8.944;2023-06-04T14:55:45;29.30;27.80
31129;DHT22;17777;48.770;8.944;2023-06-04T14:58:14;29.40;27.80
31129;DHT22;17777;48.770;8.944;2023-06-04T15:00:44;29.40;27.70
31129;DHT22;17777;48.770;8.944;2023-06-04T15:03:10;29.40;27.30
31129;DHT22;17777;48.770;8.944;2023-06-04T15:05:36;29.40;27.50
31129;DHT22;17777;48.770;8.944;2023-06-04T15:08:02;29.40;27.50
31129;DHT22;17777;48.770;8.944;2023-06-04T15:10:29;29.40;27.40
31129;DHT22;17777;48.770;8.944;2023-06-04T15:12:56;29.40;27.20
31129;DHT22;17777;48.770;8.944;2023-06-04T15:15:22;29.50;27.20
31129;DHT22;17777;48.770;8.944;2023-06-04T15:17:49;29.50;27.20
31129;DHT22;17777;48.770;8.944;2023-06-04T15:20:15;29.40;26.90
31129;DHT22;17777;48.770;8.944;2023-06-04T15:22:41;29.50;27.00
31129;DHT22;17777;48.770;8.944;2023-06-04T15:25:07;29.50;27.00
31129;DHT22;17777;48.770;8.944;2023-06-04T15:27:33;29.50;27.00
31129;DHT22;17777;48.770;8.944;2023-06-04T15:29:59;29.50;27.10
31129;DHT22;17777;48.770;8.944;2023-06-04T15:32:25;29.50;27.00
31129;DHT22;17777;48.770;8.944;2023-06-04T15:34:51;29.50;26.80
31129;DHT22;17777;48.770;8.944;2023-06-04T15:37:17;29.50;26.70
31129;DHT22;17777;48.770;8.944;2023-06-04T15:39:43;29.50;26.70
31129;DHT22;17777;48.770;8.944;2023-06-04T15:42:08;29.50;26.80
31129;DHT22;17777;48.770;8.944;2023-06-04T15:44:35;29.50;26.90